Archival Weather

Snohomish County (Paine Fld)

Everett, Washington (KPAE)

Report from: Tuesday, November 14, 2023 3:53 PM PST
Current time: Friday, June 14, 2024 4:38 AM PDT

Current weather – Weather history – Daily summaries
Weather forecast

Temperature7.2°C (45.0°F)
Wind chill5.1°C (41.2°F)
Dew point2.2°C (36.0°F)
Winds 6 kts (3.1 m/s, 6.9 mph) North-Northwest (340°)
Visibility10 mi. (16.1 km)
Clouds Sky clear
Altimeter30.02 in.Hg (1017 mB)
Relative humidity71 %
Density altitude-952 ft. (-290 m)
Sea-level pressure101.7 kPa (1017 mB, 30.03 in.Hg)
Max temp last 6 hours8.3°C (46.9°F)
Min temp last 6 hours5.6°C (42.1°F)
Remarks Automated weather observing station with precipitation discriminator
Pressure falling more slowly
Flight conditions Visual Meteorological Conditions
Raw dataKPAE 142353Z 34006KT 10SM CLR 07/02 A3002 RMK AO2 SLP168 T00720022 10083 20056 56005
An error has occurred. This application may no longer respond until reloaded. Reload 🗙